createdAt,value
2017-09-29T00:01:43.359Z,37.67
2017-09-29T00:04:11.834Z,36.20
2017-09-29T00:06:40.281Z,36.57
2017-09-29T00:09:09.522Z,35.20
2017-09-29T00:11:37.974Z,37.37
2017-09-29T00:14:06.443Z,32.97
2017-09-29T00:16:35.656Z,35.17
2017-09-29T00:19:04.134Z,35.90
2017-09-29T00:21:32.586Z,38.27
2017-09-29T00:24:01.061Z,35.20
2017-09-29T00:26:29.544Z,35.00
2017-09-29T00:28:57.977Z,34.70
2017-09-29T00:31:26.450Z,34.50
2017-09-29T00:33:54.963Z,32.50
2017-09-29T00:36:23.437Z,33.43
2017-09-29T00:38:51.931Z,36.70
2017-09-29T00:41:20.498Z,36.93
2017-09-29T00:43:48.937Z,34.47
2017-09-29T00:46:18.286Z,32.87
2017-09-29T00:48:46.734Z,33.87
2017-09-29T00:51:15.971Z,36.20
2017-09-29T00:53:44.412Z,39.27
2017-09-29T00:56:13.751Z,37.20
2017-09-29T00:58:42.198Z,37.27
2017-09-29T01:01:14.702Z,33.17
2017-09-29T01:03:43.147Z,34.60
2017-09-29T01:06:12.382Z,35.73
2017-09-29T01:08:40.825Z,33.47
2017-09-29T01:11:10.042Z,34.87
2017-09-29T01:13:38.518Z,34.10
2017-09-29T01:16:07.720Z,35.23
2017-09-29T01:18:36.955Z,33.13
2017-09-29T01:21:05.421Z,32.73
2017-09-29T01:23:33.890Z,33.77
2017-09-29T01:26:02.333Z,33.27
2017-09-29T01:28:30.868Z,35.60
2017-09-29T01:30:59.309Z,32.13
2017-09-29T01:33:28.547Z,36.60
2017-09-29T01:35:57.043Z,33.87
2017-09-29T01:38:25.618Z,34.37
2017-09-29T01:40:54.064Z,36.00
2017-09-29T01:43:23.403Z,37.07
2017-09-29T01:45:51.881Z,36.30
2017-09-29T01:48:20.358Z,38.23
2017-09-29T01:50:48.796Z,38.60
2017-09-29T01:53:17.324Z,36.17
2017-09-29T01:55:45.784Z,37.63
2017-09-29T01:58:15.019Z,36.97
2017-09-29T02:00:43.498Z,36.47
2017-09-29T02:03:11.980Z,37.20
2017-09-29T02:05:40.449Z,37.50
2017-09-29T02:08:08.898Z,35.33
2017-09-29T02:10:38.246Z,38.30
2017-09-29T02:13:06.685Z,34.37
2017-09-29T02:15:36.009Z,36.83
2017-09-29T02:18:04.452Z,34.63
2017-09-29T02:20:32.987Z,37.47
2017-09-29T02:23:01.434Z,34.57
2017-09-29T02:25:30.667Z,37.73
2017-09-29T02:27:59.105Z,35.80
2017-09-29T02:30:28.338Z,35.87
2017-09-29T02:32:56.838Z,32.60
2017-09-29T02:35:25.421Z,36.17
2017-09-29T02:37:53.866Z,35.10
2017-09-29T02:40:23.078Z,36.10
2017-09-29T02:42:51.545Z,33.20
2017-09-29T02:45:20.748Z,36.10
2017-09-29T02:47:50.118Z,36.37
2017-09-29T02:50:18.567Z,32.23
2017-09-29T02:52:47.202Z,34.17
2017-09-29T02:55:16.410Z,33.53
2017-09-29T02:57:49.418Z,34.70
2017-09-29T03:00:18.965Z,34.23
2017-09-29T03:02:49.546Z,34.70
2017-09-29T03:05:23.622Z,34.80
2017-09-29T03:07:52.089Z,33.37
2017-09-29T03:10:20.537Z,34.33
2017-09-29T03:12:49.013Z,35.67
2017-09-29T03:15:17.517Z,31.93
2017-09-29T03:17:46.093Z,33.40
2017-09-29T03:20:14.553Z,34.70
2017-09-29T03:22:43.782Z,34.83
2017-09-29T03:25:12.254Z,32.83
2017-09-29T03:27:40.697Z,32.37
2017-09-29T03:30:09.922Z,33.30
2017-09-29T03:32:38.426Z,34.40
2017-09-29T03:35:06.894Z,31.10
2017-09-29T03:37:35.391Z,33.10
2017-09-29T03:40:03.858Z,32.10
2017-09-29T03:42:32.302Z,32.57
2017-09-29T03:45:00.837Z,31.90
2017-09-29T03:47:29.282Z,31.70
2017-09-29T03:49:59.434Z,29.27
2017-09-29T03:52:30.244Z,32.53
2017-09-29T03:55:00.657Z,32.20
2017-09-29T03:57:34.489Z,32.33
2017-09-29T04:00:02.953Z,33.03
2017-09-29T04:02:32.170Z,31.17
2017-09-29T04:05:00.776Z,31.57
2017-09-29T04:07:29.218Z,32.60
2017-09-29T04:09:58.426Z,31.77
2017-09-29T04:12:27.749Z,31.40
2017-09-29T04:14:56.243Z,33.30
2017-09-29T04:17:24.705Z,32.17
2017-09-29T04:19:53.149Z,33.23
2017-09-29T04:22:21.612Z,30.13
2017-09-29T04:24:50.054Z,31.40
2017-09-29T04:27:18.521Z,31.50
2017-09-29T04:29:46.960Z,30.50
2017-09-29T04:32:15.434Z,29.47
2017-09-29T04:34:43.882Z,31.87
2017-09-29T04:37:12.349Z,30.47
2017-09-29T04:39:40.793Z,29.87
2017-09-29T04:42:09.290Z,29.57
2017-09-29T04:44:38.938Z,31.83
2017-09-29T04:47:07.386Z,30.43
2017-09-29T04:49:36.622Z,30.17
2017-09-29T04:52:05.065Z,31.80
2017-09-29T04:54:34.300Z,29.60
2017-09-29T04:57:02.790Z,29.10
2017-09-29T04:59:31.490Z,32.60
2017-09-29T05:01:59.959Z,33.23
2017-09-29T05:04:28.436Z,32.07
2017-09-29T05:06:56.881Z,32.50
2017-09-29T05:09:26.123Z,31.60
2017-09-29T05:11:55.201Z,30.10
2017-09-29T05:14:23.671Z,31.70
2017-09-29T05:16:52.117Z,30.70
2017-09-29T05:19:20.582Z,29.93
2017-09-29T05:21:49.026Z,31.03
2017-09-29T05:24:17.526Z,28.87
2017-09-29T05:26:45.965Z,31.30
2017-09-29T05:29:15.313Z,31.00
2017-09-29T05:31:43.762Z,28.77
2017-09-29T05:34:12.210Z,30.17
2017-09-29T05:36:40.677Z,29.30
2017-09-29T05:39:09.117Z,29.57
2017-09-29T05:41:37.621Z,26.60
2017-09-29T05:44:06.058Z,29.60
2017-09-29T05:46:35.290Z,28.20
2017-09-29T05:49:03.752Z,28.57
2017-09-29T05:51:32.258Z,28.90
2017-09-29T05:54:00.713Z,29.37
2017-09-29T05:56:29.946Z,26.87
2017-09-29T05:58:58.420Z,29.37
2017-09-29T06:01:26.893Z,29.40
2017-09-29T06:03:55.386Z,28.50
2017-09-29T06:06:23.973Z,28.83
2017-09-29T06:08:53.173Z,27.47
2017-09-29T06:11:21.613Z,27.70
2017-09-29T06:13:50.850Z,27.87
2017-09-29T06:16:19.337Z,28.93
2017-09-29T06:18:47.812Z,27.27
2017-09-29T06:21:16.259Z,30.77
2017-09-29T06:23:45.598Z,30.40
2017-09-29T06:26:14.086Z,30.20
2017-09-29T06:28:42.554Z,29.27
2017-09-29T06:31:11.001Z,29.80
2017-09-29T06:33:40.325Z,28.97
2017-09-29T06:36:08.769Z,28.00
2017-09-29T06:38:37.317Z,30.30
2017-09-29T06:41:05.795Z,29.70
2017-09-29T06:43:34.277Z,29.37
2017-09-29T06:46:02.760Z,27.63
2017-09-29T06:48:31.245Z,29.50
2017-09-29T06:50:59.724Z,28.27
2017-09-29T06:53:28.207Z,28.23
2017-09-29T06:55:56.669Z,29.13
2017-09-29T06:58:25.113Z,29.57
2017-09-29T07:00:53.582Z,27.27
2017-09-29T07:03:22.854Z,30.13
2017-09-29T07:05:51.430Z,31.53
2017-09-29T07:08:19.873Z,30.37
2017-09-29T07:10:49.121Z,29.80
2017-09-29T07:13:17.566Z,30.00
2017-09-29T07:15:46.897Z,28.47
2017-09-29T07:18:15.345Z,28.40
2017-09-29T07:20:44.681Z,27.83
2017-09-29T07:23:13.130Z,29.57
2017-09-29T07:25:44.070Z,29.20
2017-09-29T07:28:17.645Z,27.57
2017-09-29T07:30:48.582Z,25.10
2017-09-29T07:33:17.024Z,28.90
2017-09-29T07:35:45.610Z,27.87
2017-09-29T07:38:14.049Z,29.80
2017-09-29T07:40:43.286Z,30.10
2017-09-29T07:43:11.734Z,26.17
2017-09-29T07:45:40.994Z,30.27
2017-09-29T07:48:09.554Z,26.20
2017-09-29T07:50:38.002Z,29.60
2017-09-29T07:53:07.329Z,29.00
2017-09-29T07:55:35.769Z,29.03
2017-09-29T07:58:05.115Z,29.27
2017-09-29T08:00:33.553Z,27.33
2017-09-29T08:03:02.790Z,29.33
2017-09-29T08:05:31.237Z,29.10
2017-09-29T08:08:00.581Z,27.57
2017-09-29T08:10:29.171Z,28.70
2017-09-29T08:12:57.652Z,28.47
2017-09-29T08:15:26.133Z,29.10
2017-09-29T08:17:54.598Z,28.90
2017-09-29T08:20:23.049Z,27.13
2017-09-29T08:22:52.287Z,27.87
2017-09-29T08:25:20.740Z,27.00
2017-09-29T08:27:49.982Z,31.23
2017-09-29T08:30:18.421Z,27.93
2017-09-29T08:32:47.658Z,27.20
2017-09-29T08:35:16.097Z,28.47
2017-09-29T08:37:45.338Z,29.13
2017-09-29T08:40:13.922Z,28.10
2017-09-29T08:42:42.369Z,28.63
2017-09-29T08:45:11.698Z,28.00
2017-09-29T08:47:40.137Z,24.77
2017-09-29T08:50:09.372Z,24.57
2017-09-29T08:52:37.814Z,23.73
2017-09-29T08:55:06.282Z,24.20
2017-09-29T08:57:34.853Z,27.37
2017-09-29T09:00:03.417Z,26.00
2017-09-29T09:02:31.902Z,29.33
2017-09-29T09:05:00.483Z,29.10
2017-09-29T09:07:28.930Z,27.80
2017-09-29T09:09:58.268Z,27.43
2017-09-29T09:12:26.713Z,28.10
2017-09-29T09:14:55.929Z,26.50
2017-09-29T09:17:24.431Z,26.40
2017-09-29T09:19:52.874Z,25.63
2017-09-29T09:22:22.114Z,23.37
2017-09-29T09:24:50.592Z,24.70
2017-09-29T09:27:19.071Z,27.60
2017-09-29T09:29:47.513Z,28.70
2017-09-29T09:32:16.742Z,26.70
2017-09-29T09:34:45.185Z,29.20
2017-09-29T09:37:14.539Z,29.80
2017-09-29T09:39:43.016Z,28.53
2017-09-29T09:42:11.490Z,26.00
2017-09-29T09:44:39.938Z,25.10
2017-09-29T09:47:09.169Z,24.87
2017-09-29T09:49:37.614Z,24.37
2017-09-29T09:52:06.850Z,24.23
2017-09-29T09:54:35.662Z,27.03
2017-09-29T09:57:04.238Z,24.93
2017-09-29T09:59:32.690Z,21.10
2017-09-29T10:02:01.918Z,23.87
2017-09-29T10:04:30.399Z,24.97
2017-09-29T10:06:58.846Z,23.70
2017-09-29T10:09:28.078Z,22.87
2017-09-29T10:11:56.526Z,22.23
2017-09-29T10:14:25.763Z,23.73
2017-09-29T10:16:54.237Z,22.20
2017-09-29T10:19:22.727Z,23.37
2017-09-29T10:21:51.174Z,22.57
2017-09-29T10:24:20.511Z,19.53
2017-09-29T10:26:48.974Z,23.37
2017-09-29T10:29:17.477Z,23.23
2017-09-29T10:31:45.958Z,22.90
2017-09-29T10:34:14.426Z,21.97
2017-09-29T10:36:42.869Z,21.07
2017-09-29T10:39:12.126Z,22.03
2017-09-29T10:41:40.569Z,20.27
2017-09-29T10:44:09.777Z,20.37
2017-09-29T10:46:38.245Z,22.30
2017-09-29T10:49:07.479Z,19.70
2017-09-29T10:51:35.951Z,21.97
2017-09-29T10:54:04.445Z,21.00
2017-09-29T10:56:32.949Z,21.30
2017-09-29T10:59:01.394Z,20.50
2017-09-29T11:01:29.861Z,20.47
2017-09-29T11:03:58.385Z,22.33
2017-09-29T11:06:26.957Z,19.47
2017-09-29T11:08:55.401Z,20.20
2017-09-29T11:11:24.628Z,20.10
2017-09-29T11:13:53.074Z,21.07
2017-09-29T11:16:22.308Z,22.00
2017-09-29T11:18:50.758Z,19.13
2017-09-29T11:21:20.011Z,21.67
2017-09-29T11:23:48.456Z,19.07
2017-09-29T11:26:17.169Z,22.00
2017-09-29T11:28:45.623Z,21.13
2017-09-29T11:31:14.077Z,21.73
2017-09-29T11:33:43.322Z,22.43
2017-09-29T11:36:11.777Z,21.13
2017-09-29T11:38:41.014Z,20.20
2017-09-29T11:41:09.462Z,19.77
2017-09-29T11:43:37.926Z,20.23
2017-09-29T11:46:07.176Z,20.97
2017-09-29T11:48:35.701Z,21.30
2017-09-29T11:51:04.238Z,21.10
2017-09-29T11:53:32.827Z,21.03
2017-09-29T11:56:01.281Z,21.93
2017-09-29T11:58:29.895Z,23.00
2017-09-29T12:00:58.337Z,23.00
2017-09-29T12:03:27.569Z,23.40
2017-09-29T12:05:56.026Z,22.40
2017-09-29T12:08:24.538Z,21.80
2017-09-29T12:10:52.982Z,19.47
2017-09-29T12:13:22.222Z,22.97
2017-09-29T12:15:50.701Z,21.27
2017-09-29T12:18:19.174Z,21.03
2017-09-29T12:20:47.661Z,22.23
2017-09-29T12:23:16.146Z,21.43
2017-09-29T12:25:44.618Z,22.07
2017-09-29T12:28:13.073Z,20.30
2017-09-29T12:30:42.309Z,21.60
2017-09-29T12:33:10.752Z,20.17
2017-09-29T12:35:39.981Z,21.37
2017-09-29T12:38:08.420Z,19.60
2017-09-29T12:40:37.765Z,20.73
2017-09-29T12:43:06.210Z,18.87
2017-09-29T12:45:35.446Z,18.07
2017-09-29T12:48:03.936Z,19.77
2017-09-29T12:50:32.409Z,17.90
2017-09-29T12:53:00.853Z,17.80
2017-09-29T12:55:30.101Z,17.30
2017-09-29T12:57:58.544Z,19.57
2017-09-29T13:00:27.779Z,18.40
2017-09-29T13:02:56.366Z,20.17
2017-09-29T13:05:24.847Z,18.53
2017-09-29T13:07:53.426Z,16.10
2017-09-29T13:10:21.913Z,18.73
2017-09-29T13:12:50.382Z,19.37
2017-09-29T13:15:18.829Z,18.33
2017-09-29T13:17:48.062Z,18.03
2017-09-29T13:20:16.510Z,20.10
2017-09-29T13:22:45.740Z,18.40
2017-09-29T13:25:14.240Z,17.90
2017-09-29T13:27:42.696Z,17.77
2017-09-29T13:30:11.306Z,19.43
2017-09-29T13:32:39.885Z,17.40
2017-09-29T13:35:08.335Z,17.03
2017-09-29T13:37:37.569Z,19.37
2017-09-29T13:40:06.155Z,17.70
2017-09-29T13:42:34.606Z,18.67
2017-09-29T13:45:03.073Z,17.57
2017-09-29T13:47:32.286Z,17.43
2017-09-29T13:50:01.520Z,17.90
2017-09-29T13:52:29.965Z,18.07
2017-09-29T13:54:59.306Z,18.03
2017-09-29T13:57:27.748Z,19.40
2017-09-29T13:59:57.078Z,16.93
2017-09-29T14:02:25.526Z,17.83
2017-09-29T14:04:54.763Z,16.50
2017-09-29T14:07:23.214Z,16.37
2017-09-29T14:09:51.731Z,19.40
2017-09-29T14:12:20.185Z,17.37
2017-09-29T14:14:48.692Z,18.00
2017-09-29T14:17:17.138Z,19.80
2017-09-29T14:19:46.354Z,17.17
2017-09-29T14:22:14.825Z,19.23
2017-09-29T14:24:43.336Z,17.50
2017-09-29T14:27:11.801Z,17.13
2017-09-29T14:29:40.252Z,15.57
2017-09-29T14:32:09.604Z,17.23
2017-09-29T14:34:38.078Z,16.40
2017-09-29T14:37:06.586Z,19.90
2017-09-29T14:39:35.042Z,17.63
2017-09-29T14:42:03.513Z,16.60
2017-09-29T14:44:32.005Z,18.27
2017-09-29T14:47:00.473Z,16.43
2017-09-29T14:49:28.977Z,15.73
2017-09-29T14:51:57.440Z,17.43
2017-09-29T14:54:25.876Z,17.90
2017-09-29T14:56:54.419Z,17.20
2017-09-29T14:59:22.885Z,18.03
2017-09-29T15:01:51.329Z,18.50
2017-09-29T15:04:20.561Z,17.10
2017-09-29T15:06:49.005Z,16.80
2017-09-29T15:09:17.469Z,15.73
2017-09-29T15:11:46.031Z,17.33
2017-09-29T15:14:14.513Z,16.60
2017-09-29T15:16:42.998Z,17.60
2017-09-29T15:19:11.464Z,17.40
2017-09-29T15:21:39.910Z,17.87
2017-09-29T15:24:09.150Z,15.43
2017-09-29T15:26:37.593Z,16.60
2017-09-29T15:29:06.940Z,16.23
2017-09-29T15:31:36.349Z,17.00
2017-09-29T15:34:04.815Z,16.57
2017-09-29T15:36:33.256Z,16.03
2017-09-29T15:39:02.601Z,16.67
2017-09-29T15:41:31.093Z,16.37
2017-09-29T15:43:59.561Z,16.70
2017-09-29T15:46:28.067Z,16.23
2017-09-29T15:48:56.512Z,16.13
2017-09-29T15:51:25.029Z,16.20
2017-09-29T15:53:53.477Z,14.33
2017-09-29T15:56:21.983Z,13.60
2017-09-29T15:58:50.462Z,14.27
2017-09-29T16:01:18.942Z,14.30
2017-09-29T16:03:47.381Z,15.43
2017-09-29T16:06:16.608Z,13.13
2017-09-29T16:08:45.109Z,14.77
2017-09-29T16:11:13.577Z,15.07
2017-09-29T16:13:42.074Z,15.00
2017-09-29T16:16:10.536Z,14.70
2017-09-29T16:18:38.982Z,13.93
2017-09-29T16:21:07.445Z,14.90
2017-09-29T16:23:35.889Z,14.77
2017-09-29T16:26:04.380Z,14.27
2017-09-29T16:28:32.858Z,15.17
2017-09-29T16:31:01.305Z,15.63
2017-09-29T16:33:30.539Z,13.07
2017-09-29T16:35:59.022Z,15.33
2017-09-29T16:38:27.509Z,13.90
2017-09-29T16:40:55.957Z,15.20
2017-09-29T16:43:25.285Z,15.33
2017-09-29T16:45:53.725Z,15.20
2017-09-29T16:48:23.062Z,13.33
2017-09-29T16:50:51.505Z,14.40
2017-09-29T16:53:20.741Z,16.10
2017-09-29T16:55:49.194Z,16.33
2017-09-29T16:58:18.533Z,15.70
2017-09-29T17:00:46.982Z,14.73
2017-09-29T17:03:16.426Z,15.57
2017-09-29T17:05:44.868Z,15.27
2017-09-29T17:08:14.156Z,15.30
2017-09-29T17:10:43.389Z,15.67
2017-09-29T17:13:11.833Z,15.43
2017-09-29T17:15:40.302Z,15.53
2017-09-29T17:18:08.852Z,16.33
2017-09-29T17:20:37.437Z,13.80
2017-09-29T17:23:05.923Z,15.30
2017-09-29T17:25:34.386Z,14.40
2017-09-29T17:28:02.877Z,14.50
2017-09-29T17:30:31.353Z,14.23
2017-09-29T17:32:59.801Z,13.63
2017-09-29T17:35:29.029Z,14.57
2017-09-29T17:37:57.479Z,12.60
2017-09-29T17:40:26.705Z,14.33
2017-09-29T17:42:55.208Z,14.10
2017-09-29T17:45:23.697Z,14.03
2017-09-29T17:47:52.172Z,12.87
2017-09-29T17:50:20.621Z,14.30
2017-09-29T17:52:49.852Z,13.50
2017-09-29T17:55:18.337Z,13.40
2017-09-29T17:57:47.023Z,11.37
2017-09-29T18:00:15.504Z,12.20
2017-09-29T18:02:43.970Z,13.43
2017-09-29T18:05:12.479Z,11.27
2017-09-29T18:07:41.047Z,11.67
2017-09-29T18:10:09.534Z,11.03
2017-09-29T18:12:38.017Z,12.17
2017-09-29T18:15:07.216Z,14.10
2017-09-29T18:17:35.686Z,11.27
2017-09-29T18:20:04.129Z,12.10
2017-09-29T18:22:33.362Z,11.33
2017-09-29T18:25:01.801Z,13.10
2017-09-29T18:27:30.270Z,11.33
2017-09-29T18:29:58.713Z,11.50
2017-09-29T18:32:27.153Z,11.60
2017-09-29T18:34:56.390Z,11.10
2017-09-29T18:37:24.885Z,10.43
2017-09-29T18:39:53.354Z,11.30
2017-09-29T18:42:21.852Z,10.90
2017-09-29T18:47:56.080Z,12.40
2017-09-29T18:50:24.558Z,11.63
2017-09-29T18:52:53.002Z,12.77
2017-09-29T18:55:22.229Z,11.20
2017-09-29T18:57:50.677Z,13.27
2017-09-29T19:00:20.027Z,12.00
2017-09-29T19:02:48.509Z,12.73
2017-09-29T19:05:17.104Z,11.50
2017-09-29T19:07:45.550Z,12.30
2017-09-29T19:10:14.789Z,12.30
2017-09-29T19:12:43.238Z,11.27
2017-09-29T19:15:11.730Z,11.50
2017-09-29T19:17:40.198Z,12.37
2017-09-29T19:20:08.642Z,11.90
2017-09-29T19:22:37.109Z,10.93
2017-09-29T19:25:05.549Z,12.77
2017-09-29T19:27:34.054Z,12.70
2017-09-29T19:30:02.535Z,11.70
2017-09-29T19:32:31.034Z,11.40
2017-09-29T19:34:59.499Z,12.67
2017-09-29T19:37:28.081Z,12.30
2017-09-29T19:39:56.564Z,11.70
2017-09-29T19:42:25.153Z,12.57
2017-09-29T19:44:53.599Z,11.93
2017-09-29T19:47:22.833Z,11.80
2017-09-29T19:49:51.273Z,12.30
2017-09-29T19:52:20.511Z,11.83
2017-09-29T19:54:48.994Z,11.20
2017-09-29T19:57:17.481Z,11.73
2017-09-29T19:59:45.925Z,12.47
2017-09-29T20:02:15.137Z,11.90
2017-09-29T20:04:45.178Z,12.03
2017-09-29T20:07:13.618Z,11.70
2017-09-29T20:09:42.849Z,11.57
2017-09-29T20:12:11.338Z,12.63
2017-09-29T20:14:39.911Z,12.80
2017-09-29T20:17:08.357Z,12.47
2017-09-29T20:19:37.685Z,11.80
2017-09-29T20:22:06.186Z,11.97
2017-09-29T20:24:34.649Z,12.90
2017-09-29T20:27:03.085Z,12.77
2017-09-29T20:29:31.626Z,12.30
2017-09-29T20:32:00.113Z,12.70
2017-09-29T20:34:28.581Z,13.27
2017-09-29T20:36:57.021Z,13.40
2017-09-29T20:39:25.477Z,11.10
2017-09-29T20:41:53.950Z,13.10
2017-09-29T20:44:22.396Z,11.73
2017-09-29T20:46:50.870Z,12.17
2017-09-29T20:49:20.077Z,11.90
2017-09-29T20:51:48.550Z,11.93
2017-09-29T20:54:17.762Z,10.87
2017-09-29T20:56:46.259Z,12.20
2017-09-29T20:59:14.709Z,12.53
2017-09-29T21:01:43.945Z,12.63
2017-09-29T21:04:12.393Z,12.77
2017-09-29T21:06:41.723Z,10.77
2017-09-29T21:09:10.205Z,12.13
2017-09-29T21:11:38.669Z,12.20
2017-09-29T21:14:07.124Z,11.23
2017-09-29T21:16:36.357Z,12.43
2017-09-29T21:19:04.797Z,12.10
2017-09-29T21:21:33.333Z,12.40
2017-09-29T21:24:01.805Z,14.00
2017-09-29T21:26:30.261Z,12.23
2017-09-29T21:28:59.488Z,12.20
2017-09-29T21:31:27.934Z,13.13
2017-09-29T21:33:57.169Z,11.23
2017-09-29T21:36:25.612Z,13.17
2017-09-29T21:38:54.844Z,13.67
2017-09-29T21:41:23.289Z,12.90
2017-09-29T21:43:51.762Z,12.00
2017-09-29T21:46:20.964Z,13.50
2017-09-29T21:48:49.437Z,12.40
2017-09-29T21:51:17.888Z,13.10
2017-09-29T21:53:46.474Z,12.37
2017-09-29T21:56:14.955Z,12.90
2017-09-29T21:58:43.421Z,13.47
2017-09-29T22:01:11.919Z,12.40
2017-09-29T22:03:40.506Z,13.07
2017-09-29T22:06:08.945Z,14.20
2017-09-29T22:08:38.157Z,13.63
2017-09-29T22:11:06.626Z,13.53
2017-09-29T22:13:35.841Z,13.73
2017-09-29T22:16:04.309Z,13.13
2017-09-29T22:18:33.545Z,13.13
2017-09-29T22:21:02.126Z,13.10
2017-09-29T22:23:30.569Z,13.60
2017-09-29T22:25:59.913Z,14.43
2017-09-29T22:28:28.888Z,13.80
2017-09-29T22:30:57.388Z,13.83
2017-09-29T22:33:25.866Z,13.63
2017-09-29T22:35:54.353Z,14.23
2017-09-29T22:38:22.830Z,12.87
2017-09-29T22:40:51.317Z,15.07
2017-09-29T22:43:19.794Z,12.90
2017-09-29T22:45:48.241Z,14.53
2017-09-29T22:48:17.479Z,14.70
2017-09-29T22:50:45.930Z,13.93
2017-09-29T22:53:15.257Z,13.47
2017-09-29T22:55:43.746Z,14.57
2017-09-29T22:58:12.218Z,14.43
2017-09-29T23:00:40.678Z,16.23
2017-09-29T23:03:09.907Z,15.30
2017-09-29T23:05:38.353Z,15.60
2017-09-29T23:08:07.674Z,15.97
2017-09-29T23:10:36.172Z,14.13
2017-09-29T23:13:04.646Z,14.90
2017-09-29T23:15:33.140Z,15.00
2017-09-29T23:18:01.601Z,15.50
2017-09-29T23:20:30.045Z,14.40
2017-09-29T23:22:58.584Z,15.80
2017-09-29T23:25:27.029Z,14.73
2017-09-29T23:27:56.242Z,13.50
2017-09-29T23:30:24.705Z,15.10
2017-09-29T23:32:53.913Z,15.50
2017-09-29T23:35:23.246Z,15.90
2017-09-29T23:37:51.724Z,16.40
2017-09-29T23:40:20.198Z,14.70
2017-09-29T23:42:48.693Z,15.87
2017-09-29T23:45:17.278Z,16.73
2017-09-29T23:47:45.725Z,16.07
2017-09-29T23:50:14.962Z,17.07
2017-09-29T23:52:43.434Z,16.83
2017-09-29T23:55:11.911Z,15.87
2017-09-29T23:57:40.404Z,16.90
